sensor_id;sensor_type;location;lat;lon;timestamp;pressure;altitude;pressure_sealevel;temperature;humidity
63808;BME280;49961;43.970;22.868;2022-09-16T00:00:54;100459.47;;;24.56;100.00
63808;BME280;49961;43.970;22.868;2022-09-16T00:01:54;100459.75;;;24.52;100.00
63808;BME280;49961;43.970;22.868;2022-09-16T00:02:55;100459.47;;;24.56;100.00
63808;BME280;49961;43.970;22.868;2022-09-16T00:03:56;100462.31;;;24.56;100.00
63808;BME280;49961;43.970;22.868;2022-09-16T00:04:57;100469.50;;;24.57;100.00
63808;BME280;49961;43.970;22.868;2022-09-16T00:05:57;100473.88;;;24.58;100.00
63808;BME280;49961;43.970;22.868;2022-09-16T00:06:58;100476.00;;;24.52;100.00
63808;BME280;49961;43.970;22.868;2022-09-16T00:07:58;100460.75;;;24.55;100.00
63808;BME280;49961;43.970;22.868;2022-09-16T00:08:59;100415.53;;;24.25;100.00
63808;BME280;49961;43.970;22.868;2022-09-16T00:10:04;100470.56;;;24.54;100.00
63808;BME280;49961;43.970;22.868;2022-09-16T00:11:04;100453.56;;;24.54;100.00
63808;BME280;49961;43.970;22.868;2022-09-16T00:12:05;100445.38;;;24.50;100.00
63808;BME280;49961;43.970;22.868;2022-09-16T00:13:06;100470.56;;;24.54;100.00
63808;BME280;49961;43.970;22.868;2022-09-16T00:14:06;100381.63;;;23.96;100.00
63808;BME280;49961;43.970;22.868;2022-09-16T00:15:07;100463.34;;;24.58;100.00
63808;BME280;49961;43.970;22.868;2022-09-16T00:16:12;100461.00;;;24.57;100.00
63808;BME280;49961;43.970;22.868;2022-09-16T00:17:15;100469.50;;;24.57;100.00
63808;BME280;49961;43.970;22.868;2022-09-16T00:18:16;100475.44;;;24.59;100.00
63808;BME280;49961;43.970;22.868;2022-09-16T00:19:16;100464.88;;;24.59;100.00
63808;BME280;49961;43.970;22.868;2022-09-16T00:20:17;100470.19;;;24.68;100.00
63808;BME280;49961;43.970;22.868;2022-09-16T00:21:17;100452.88;;;24.72;100.00
63808;BME280;49961;43.970;22.868;2022-09-16T00:22:18;100460.06;;;24.73;100.00
63808;BME280;49961;43.970;22.868;2022-09-16T00:23:18;100431.09;;;24.61;100.00
63808;BME280;49961;43.970;22.868;2022-09-16T00:24:19;100465.13;;;24.80;100.00
63808;BME280;49961;43.970;22.868;2022-09-16T00:25:19;100464.06;;;24.83;100.00
63808;BME280;49961;43.970;22.868;2022-09-16T00:26:20;100461.63;;;24.92;100.00
63808;BME280;49961;43.970;22.868;2022-09-16T00:27:20;100461.41;;;24.90;100.00
63808;BME280;49961;43.970;22.868;2022-09-16T00:28:22;100442.06;;;24.70;100.00
63808;BME280;49961;43.970;22.868;2022-09-16T00:29:22;100469.38;;;24.92;100.00
63808;BME280;49961;43.970;22.868;2022-09-16T00:30:23;100471.97;;;24.90;100.00
63808;BME280;49961;43.970;22.868;2022-09-16T00:31:23;100472.22;;;24.92;100.00
63808;BME280;49961;43.970;22.868;2022-09-16T00:32:24;100470.66;;;24.91;100.00
63808;BME280;49961;43.970;22.868;2022-09-16T00:33:24;100461.53;;;24.79;100.00
63808;BME280;49961;43.970;22.868;2022-09-16T00:34:25;100463.72;;;24.92;100.00
63808;BME280;49961;43.970;22.868;2022-09-16T00:35:25;100468.38;;;24.89;100.00
63808;BME280;49961;43.970;22.868;2022-09-16T00:36:26;100473.97;;;24.95;100.00
63808;BME280;49961;43.970;22.868;2022-09-16T00:37:26;100469.06;;;24.95;100.00
63808;BME280;49961;43.970;22.868;2022-09-16T00:38:27;100464.63;;;25.00;100.00
63808;BME280;49961;43.970;22.868;2022-09-16T00:39:28;100473.91;;;25.00;100.00
63808;BME280;49961;43.970;22.868;2022-09-16T00:40:29;100421.75;;;24.66;100.00
63808;BME280;49961;43.970;22.868;2022-09-16T00:41:30;100461.41;;;24.90;100.00
63808;BME280;49961;43.970;22.868;2022-09-16T00:42:37;100473.50;;;24.91;100.00
63808;BME280;49961;43.970;22.868;2022-09-16T00:44:59;100495.81;;;25.00;100.00
63808;BME280;49961;43.970;22.868;2022-09-16T00:46:03;100420.34;;;24.54;100.00
63808;BME280;49961;43.970;22.868;2022-09-16T00:47:04;100419.56;;;24.54;100.00
63808;BME280;49961;43.970;22.868;2022-09-16T00:48:06;100494.50;;;25.01;100.00
63808;BME280;49961;43.970;22.868;2022-09-16T00:49:18;100453.09;;;24.74;100.00
63808;BME280;49961;43.970;22.868;2022-09-16T00:50:24;100474.56;;;24.88;100.00
63808;BME280;49961;43.970;22.868;2022-09-16T00:51:27;100487.91;;;24.93;100.00
63808;BME280;49961;43.970;22.868;2022-09-16T00:52:29;100473.44;;;24.96;100.00
63808;BME280;49961;43.970;22.868;2022-09-16T00:53:34;100480.31;;;25.01;100.00
63808;BME280;49961;43.970;22.868;2022-09-16T00:54:38;100484.63;;;25.07;100.00
63808;BME280;49961;43.970;22.868;2022-09-16T00:55:39;100493.06;;;25.13;100.00
63808;BME280;49961;43.970;22.868;2022-09-16T00:56:44;100491.38;;;25.23;100.00
63808;BME280;49961;43.970;22.868;2022-09-16T00:57:46;100506.31;;;25.23;100.00
63808;BME280;49961;43.970;22.868;2022-09-16T00:58:50;100490.31;;;25.26;100.00
63808;BME280;49961;43.970;22.868;2022-09-16T00:59:53;100492.09;;;25.29;100.00
63808;BME280;49961;43.970;22.868;2022-09-16T01:00:55;100471.81;;;25.19;100.00
63808;BME280;49961;43.970;22.868;2022-09-16T01:01:58;100475.28;;;25.12;100.00
63808;BME280;49961;43.970;22.868;2022-09-16T01:02:59;100463.41;;;25.14;100.00
63808;BME280;49961;43.970;22.868;2022-09-16T01:04:10;100490.78;;;25.30;100.00
63808;BME280;49961;43.970;22.868;2022-09-16T01:05:19;100487.72;;;25.28;100.00
63808;BME280;49961;43.970;22.868;2022-09-16T01:06:23;100473.81;;;25.24;100.00
63808;BME280;49961;43.970;22.868;2022-09-16T01:07:30;100489.00;;;25.27;100.00
63808;BME280;49961;43.970;22.868;2022-09-16T01:08:32;100485.72;;;25.23;100.00
63808;BME280;49961;43.970;22.868;2022-09-16T01:09:33;100483.63;;;25.23;100.00
63808;BME280;49961;43.970;22.868;2022-09-16T01:10:33;100482.88;;;25.23;100.00
63808;BME280;49961;43.970;22.868;2022-09-16T01:11:34;100482.31;;;25.24;100.00
63808;BME280;49961;43.970;22.868;2022-09-16T01:12:35;100476.19;;;25.20;100.00
63808;BME280;49961;43.970;22.868;2022-09-16T01:13:37;100452.53;;;24.99;100.00
63808;BME280;49961;43.970;22.868;2022-09-16T01:14:38;100470.13;;;25.11;100.00
63808;BME280;49961;43.970;22.868;2022-09-16T01:16:11;100486.31;;;25.16;100.00
63808;BME280;49961;43.970;22.868;2022-09-16T01:18:54;100490.97;;;25.13;100.00
63808;BME280;49961;43.970;22.868;2022-09-16T01:24:24;100490.59;;;25.04;100.00
63808;BME280;49961;43.970;22.868;2022-09-16T01:27:13;100478.09;;;24.94;100.00
63808;BME280;49961;43.970;22.868;2022-09-16T01:32:25;100477.88;;;24.92;100.00
63808;BME280;49961;43.970;22.868;2022-09-16T01:33:36;100476.88;;;24.89;100.00
63808;BME280;49961;43.970;22.868;2022-09-16T01:40:36;100494.72;;;24.84;100.00
63808;BME280;49961;43.970;22.868;2022-09-16T01:42:08;100496.00;;;24.83;100.00
63808;BME280;49961;43.970;22.868;2022-09-16T01:43:17;100503.59;;;24.75;100.00
63808;BME280;49961;43.970;22.868;2022-09-16T01:44:41;100501.09;;;24.66;100.00
63808;BME280;49961;43.970;22.868;2022-09-16T01:45:58;100487.00;;;24.61;100.00
63808;BME280;49961;43.970;22.868;2022-09-16T01:47:09;100505.28;;;24.60;100.00
63808;BME280;49961;43.970;22.868;2022-09-16T01:49:35;100496.25;;;24.61;100.00
63808;BME280;49961;43.970;22.868;2022-09-16T01:52:03;100520.22;;;24.60;100.00
63808;BME280;49961;43.970;22.868;2022-09-16T01:55:23;100550.22;;;24.45;100.00
63808;BME280;49961;43.970;22.868;2022-09-16T01:57:39;100546.19;;;24.35;100.00
63808;BME280;49961;43.970;22.868;2022-09-16T01:59:49;100486.41;;;23.85;100.00
63808;BME280;49961;43.970;22.868;2022-09-16T02:00:58;100506.97;;;23.91;100.00
63808;BME280;49961;43.970;22.868;2022-09-16T02:02:05;100550.69;;;24.25;100.00
63808;BME280;49961;43.970;22.868;2022-09-16T02:03:13;100534.34;;;24.12;100.00
63808;BME280;49961;43.970;22.868;2022-09-16T02:04:22;100539.94;;;24.18;100.00
63808;BME280;49961;43.970;22.868;2022-09-16T02:05:36;100556.91;;;24.18;100.00
63808;BME280;49961;43.970;22.868;2022-09-16T02:06:39;100565.47;;;24.12;100.00
63808;BME280;49961;43.970;22.868;2022-09-16T02:07:48;100560.84;;;24.09;100.00
63808;BME280;49961;43.970;22.868;2022-09-16T02:08:59;100560.38;;;24.05;100.00
63808;BME280;49961;43.970;22.868;2022-09-16T02:10:23;100564.25;;;24.02;100.00
63808;BME280;49961;43.970;22.868;2022-09-16T02:11:24;100562.47;;;23.99;100.00
63808;BME280;49961;43.970;22.868;2022-09-16T02:12:31;100453.88;;;23.32;100.00
63808;BME280;49961;43.970;22.868;2022-09-16T02:13:35;100545.50;;;23.99;100.00
63808;BME280;49961;43.970;22.868;2022-09-16T02:14:41;100550.94;;;23.97;100.00
63808;BME280;49961;43.970;22.868;2022-09-16T02:15:44;100535.03;;;23.89;100.00
63808;BME280;49961;43.970;22.868;2022-09-16T02:16:53;100554.00;;;23.99;100.00
63808;BME280;49961;43.970;22.868;2022-09-16T02:18:07;100551.69;;;23.98;100.00
63808;BME280;49961;43.970;22.868;2022-09-16T02:19:15;100560.22;;;23.92;100.00
63808;BME280;49961;43.970;22.868;2022-09-16T02:20:23;100558.94;;;23.93;100.00
63808;BME280;49961;43.970;22.868;2022-09-16T02:21:26;100561.25;;;23.89;100.00
63808;BME280;49961;43.970;22.868;2022-09-16T02:22:33;100562.03;;;23.84;100.00
63808;BME280;49961;43.970;22.868;2022-09-16T02:23:40;100557.25;;;23.74;100.00
63808;BME280;49961;43.970;22.868;2022-09-16T02:24:44;100496.53;;;23.34;100.00
63808;BME280;49961;43.970;22.868;2022-09-16T02:25:47;100475.03;;;23.15;100.00
63808;BME280;49961;43.970;22.868;2022-09-16T02:26:54;100554.66;;;23.70;100.00
63808;BME280;49961;43.970;22.868;2022-09-16T02:27:58;100537.81;;;23.54;100.00
63808;BME280;49961;43.970;22.868;2022-09-16T02:29:07;100557.28;;;23.68;100.00
63808;BME280;49961;43.970;22.868;2022-09-16T02:30:14;100561.13;;;23.65;100.00
63808;BME280;49961;43.970;22.868;2022-09-16T02:31:16;100473.25;;;23.12;100.00
63808;BME280;49961;43.970;22.868;2022-09-16T02:32:21;100551.41;;;23.55;100.00
63808;BME280;49961;43.970;22.868;2022-09-16T02:33:26;100554.22;;;23.61;100.00
63808;BME280;49961;43.970;22.868;2022-09-16T02:34:35;100564.25;;;23.62;100.00
63808;BME280;49961;43.970;22.868;2022-09-16T02:35:38;100562.19;;;23.62;100.00
63808;BME280;49961;43.970;22.868;2022-09-16T02:36:42;100537.34;;;23.44;100.00
63808;BME280;49961;43.970;22.868;2022-09-16T02:38:15;100565.25;;;23.64;100.00
63808;BME280;49961;43.970;22.868;2022-09-16T02:39:21;100569.88;;;23.67;100.00
63808;BME280;49961;43.970;22.868;2022-09-16T02:40:31;100514.06;;;23.22;100.00
63808;BME280;49961;43.970;22.868;2022-09-16T02:41:36;100581.72;;;23.66;100.00
63808;BME280;49961;43.970;22.868;2022-09-16T02:42:38;100578.66;;;23.64;100.00
63808;BME280;49961;43.970;22.868;2022-09-16T02:43:40;100579.16;;;23.62;100.00
63808;BME280;49961;43.970;22.868;2022-09-16T02:44:41;100574.00;;;23.66;100.00
63808;BME280;49961;43.970;22.868;2022-09-16T02:48:58;100555.97;;;23.69;100.00
63808;BME280;49961;43.970;22.868;2022-09-16T02:50:14;100562.63;;;23.72;100.00
63808;BME280;49961;43.970;22.868;2022-09-16T02:52:39;100574.97;;;23.74;100.00
63808;BME280;49961;43.970;22.868;2022-09-16T02:55:21;100565.47;;;23.72;100.00
63808;BME280;49961;43.970;22.868;2022-09-16T02:56:36;100561.34;;;23.73;100.00
63808;BME280;49961;43.970;22.868;2022-09-16T02:57:38;100558.03;;;23.69;100.00
63808;BME280;49961;43.970;22.868;2022-09-16T02:58:39;100496.53;;;23.34;100.00
63808;BME280;49961;43.970;22.868;2022-09-16T02:59:40;100560.31;;;23.76;100.00
63808;BME280;49961;43.970;22.868;2022-09-16T03:00:45;100488.59;;;23.33;100.00
63808;BME280;49961;43.970;22.868;2022-09-16T03:01:46;100550.03;;;23.73;100.00
63808;BME280;49961;43.970;22.868;2022-09-16T03:02:47;100553.88;;;23.75;100.00
63808;BME280;49961;43.970;22.868;2022-09-16T03:03:48;100500.06;;;23.46;100.00
63808;BME280;49961;43.970;22.868;2022-09-16T03:04:48;100552.84;;;23.73;100.00
63808;BME280;49961;43.970;22.868;2022-09-16T03:07:09;100558.28;;;23.71;100.00
63808;BME280;49961;43.970;22.868;2022-09-16T03:08:10;100557.28;;;23.68;100.00
63808;BME280;49961;43.970;22.868;2022-09-16T03:09:13;100563.72;;;23.69;100.00
63808;BME280;49961;43.970;22.868;2022-09-16T03:10:13;100561.13;;;23.65;100.00
63808;BME280;49961;43.970;22.868;2022-09-16T03:11:27;100558.88;;;23.58;100.00
63808;BME280;49961;43.970;22.868;2022-09-16T03:13:03;100542.78;;;23.42;100.00
63808;BME280;49961;43.970;22.868;2022-09-16T03:15:03;100554.56;;;23.46;100.00
63808;BME280;49961;43.970;22.868;2022-09-16T03:20:04;100560.31;;;23.24;100.00
63808;BME280;49961;43.970;22.868;2022-09-16T03:21:15;100558.03;;;23.23;100.00
63808;BME280;49961;43.970;22.868;2022-09-16T03:24:07;100560.59;;;23.21;100.00
63808;BME280;49961;43.970;22.868;2022-09-16T03:25:33;100553.66;;;23.22;100.00
63808;BME280;49961;43.970;22.868;2022-09-16T03:26:56;100564.97;;;23.22;100.00
63808;BME280;49961;43.970;22.868;2022-09-16T03:28:24;100557.25;;;23.22;100.00
63808;BME280;49961;43.970;22.868;2022-09-16T03:29:32;100559.06;;;23.25;100.00
63808;BME280;49961;43.970;22.868;2022-09-16T03:30:41;100556.97;;;23.26;100.00
63808;BME280;49961;43.970;22.868;2022-09-16T03:32:15;100563.16;;;23.24;100.00
63808;BME280;49961;43.970;22.868;2022-09-16T03:33:31;100562.63;;;23.26;100.00
63808;BME280;49961;43.970;22.868;2022-09-16T03:34:46;100495.78;;;22.77;100.00
63808;BME280;49961;43.970;22.868;2022-09-16T03:35:50;100571.84;;;23.32;100.00
63808;BME280;49961;43.970;22.868;2022-09-16T03:36:57;100579.06;;;23.33;100.00
63808;BME280;49961;43.970;22.868;2022-09-16T03:37:59;100574.94;;;23.34;100.00
63808;BME280;49961;43.970;22.868;2022-09-16T03:39:01;100581.34;;;23.34;100.00
63808;BME280;49961;43.970;22.868;2022-09-16T03:40:08;100588.31;;;23.33;100.00
63808;BME280;49961;43.970;22.868;2022-09-16T03:41:10;100594.97;;;23.36;100.00
63808;BME280;49961;43.970;22.868;2022-09-16T03:42:12;100595.75;;;23.36;100.00
63808;BME280;49961;43.970;22.868;2022-09-16T03:43:14;100602.94;;;23.37;100.00
63808;BME280;49961;43.970;22.868;2022-09-16T03:44:15;100600.91;;;23.38;100.00
63808;BME280;49961;43.970;22.868;2022-09-16T03:45:19;100605.50;;;23.41;100.00
63808;BME280;49961;43.970;22.868;2022-09-16T03:46:20;100607.53;;;23.46;100.00
63808;BME280;49961;43.970;22.868;2022-09-16T03:47:20;100594.97;;;23.36;100.00
63808;BME280;49961;43.970;22.868;2022-09-16T03:48:21;100606.78;;;23.45;100.00
63808;BME280;49961;43.970;22.868;2022-09-16T03:49:21;100609.06;;;23.47;100.00
63808;BME280;49961;43.970;22.868;2022-09-16T03:50:22;100609.63;;;23.45;100.00
63808;BME280;49961;43.970;22.868;2022-09-16T03:51:23;100609.88;;;23.42;100.00
63808;BME280;49961;43.970;22.868;2022-09-16T03:52:24;100602.69;;;23.41;100.00
63808;BME280;49961;43.970;22.868;2022-09-16T03:53:24;100618.84;;;23.46;100.00
63808;BME280;49961;43.970;22.868;2022-09-16T03:54:26;100603.22;;;23.34;100.00
63808;BME280;49961;43.970;22.868;2022-09-16T03:55:26;100626.31;;;23.43;100.00
63808;BME280;49961;43.970;22.868;2022-09-16T03:56:27;100621.19;;;23.42;100.00
63808;BME280;49961;43.970;22.868;2022-09-16T03:57:27;100614.53;;;23.34;100.00
63808;BME280;49961;43.970;22.868;2022-09-16T03:58:29;100614.81;;;23.30;100.00
63808;BME280;49961;43.970;22.868;2022-09-16T03:59:30;100616.88;;;23.30;100.00
63808;BME280;49961;43.970;22.868;2022-09-16T04:00:30;100613.25;;;23.29;100.00
63808;BME280;49961;43.970;22.868;2022-09-16T04:01:32;100620.97;;;23.29;100.00
63808;BME280;49961;43.970;22.868;2022-09-16T04:02:32;100610.69;;;23.26;100.00
63808;BME280;49961;43.970;22.868;2022-09-16T04:04:36;100610.19;;;23.16;100.00
63808;BME280;49961;43.970;22.868;2022-09-16T04:05:37;100611.78;;;23.06;100.00
63808;BME280;49961;43.970;22.868;2022-09-16T04:06:37;100601.81;;;22.94;100.00
63808;BME280;49961;43.970;22.868;2022-09-16T04:07:38;100614.38;;;22.99;100.00
63808;BME280;49961;43.970;22.868;2022-09-16T04:08:38;100628.50;;;22.99;100.00
63808;BME280;49961;43.970;22.868;2022-09-16T04:09:39;100572.31;;;22.62;100.00
63808;BME280;49961;43.970;22.868;2022-09-16T04:10:39;100513.31;;;22.37;100.00
63808;BME280;49961;43.970;22.868;2022-09-16T04:11:40;100503.06;;;22.23;100.00
63808;BME280;49961;43.970;22.868;2022-09-16T04:12:40;100618.47;;;23.03;100.00
63808;BME280;49961;43.970;22.868;2022-09-16T04:13:41;100606.19;;;22.84;100.00
63808;BME280;49961;43.970;22.868;2022-09-16T04:14:41;100626.94;;;23.09;100.00
63808;BME280;49961;43.970;22.868;2022-09-16T04:15:42;100629.75;;;23.09;100.00
63808;BME280;49961;43.970;22.868;2022-09-16T04:16:42;100625.91;;;23.06;100.00
63808;BME280;49961;43.970;22.868;2022-09-16T04:17:43;100630.00;;;23.11;100.00
63808;BME280;49961;43.970;22.868;2022-09-16T04:18:43;100632.84;;;23.05;100.00
63808;BME280;49961;43.970;22.868;2022-09-16T04:19:44;100633.13;;;23.02;100.00
63808;BME280;49961;43.970;22.868;2022-09-16T04:20:44;100622.06;;;22.98;100.00
63808;BME280;49961;43.970;22.868;2022-09-16T04:21:45;100617.69;;;23.03;100.00
63808;BME280;49961;43.970;22.868;2022-09-16T04:22:45;100619.75;;;23.02;100.00
63808;BME280;49961;43.970;22.868;2022-09-16T04:23:46;100553.59;;;22.54;100.00
63808;BME280;49961;43.970;22.868;2022-09-16T04:24:47;100631.31;;;22.99;100.00
63808;BME280;49961;43.970;22.868;2022-09-16T04:26:01;100629.53;;;22.96;100.00
63808;BME280;49961;43.970;22.868;2022-09-16T04:27:02;100628.50;;;22.93;100.00
63808;BME280;49961;43.970;22.868;2022-09-16T04:28:02;100638.00;;;22.96;100.00
63808;BME280;49961;43.970;22.868;2022-09-16T04:29:03;100637.50;;;22.97;100.00
63808;BME280;49961;43.970;22.868;2022-09-16T04:30:03;100596.97;;;22.73;100.00
63808;BME280;49961;43.970;22.868;2022-09-16T04:31:08;100636.72;;;23.02;100.00
63808;BME280;49961;43.970;22.868;2022-09-16T04:32:09;100645.69;;;23.06;100.00
63808;BME280;49961;43.970;22.868;2022-09-16T04:33:09;100644.41;;;23.07;100.00
63808;BME280;49961;43.970;22.868;2022-09-16T04:34:10;100639.78;;;23.10;100.00
63808;BME280;49961;43.970;22.868;2022-09-16T04:35:13;100642.59;;;23.10;100.00
63808;BME280;49961;43.970;22.868;2022-09-16T04:36:16;100635.66;;;23.11;100.00
63808;BME280;49961;43.970;22.868;2022-09-16T04:37:16;100634.34;;;23.12;100.00
63808;BME280;49961;43.970;22.868;2022-09-16T04:38:17;100646.69;;;23.14;100.00
63808;BME280;49961;43.970;22.868;2022-09-16T04:39:17;100635.38;;;23.14;100.00
63808;BME280;49961;43.970;22.868;2022-09-16T04:40:18;100641.56;;;23.18;100.00
63808;BME280;49961;43.970;22.868;2022-09-16T04:41:21;100649.78;;;23.22;100.00
63808;BME280;49961;43.970;22.868;2022-09-16T04:42:22;100613.03;;;23.16;100.00
63808;BME280;49961;43.970;22.868;2022-09-16T04:43:22;100633.34;;;23.15;100.00
63808;BME280;49961;43.970;22.868;2022-09-16T04:44:23;100631.53;;;23.17;100.00
63808;BME280;49961;43.970;22.868;2022-09-16T04:45:23;100629.72;;;23.14;100.00
63808;BME280;49961;43.970;22.868;2022-09-16T04:46:28;100631.28;;;23.15;100.00
63808;BME280;49961;43.970;22.868;2022-09-16T04:47:29;100635.91;;;23.13;100.00
63808;BME280;49961;43.970;22.868;2022-09-16T04:48:30;100627.94;;;23.11;100.00
63808;BME280;49961;43.970;22.868;2022-09-16T04:49:32;100627.44;;;23.13;100.00
63808;BME280;49961;43.970;22.868;2022-09-16T04:50:32;100612.28;;;23.05;100.00
63808;BME280;49961;43.970;22.868;2022-09-16T04:51:33;100624.06;;;23.14;100.00
63808;BME280;49961;43.970;22.868;2022-09-16T04:52:33;100626.91;;;23.14;100.00
63808;BME280;49961;43.970;22.868;2022-09-16T04:53:35;100571.28;;;22.71;100.00
63808;BME280;49961;43.970;22.868;2022-09-16T04:54:35;100634.13;;;23.15;100.00
63808;BME280;49961;43.970;22.868;2022-09-16T04:55:36;100633.09;;;23.13;100.00
63808;BME280;49961;43.970;22.868;2022-09-16T04:56:37;100638.22;;;23.14;100.00
63808;BME280;49961;43.970;22.868;2022-09-16T04:57:38;100644.41;;;23.13;100.00
63808;BME280;49961;43.970;22.868;2022-09-16T04:58:38;100648.50;;;23.17;100.00
63808;BME280;49961;43.970;22.868;2022-09-16T04:59:39;100637.72;;;23.21;100.00
63808;BME280;49961;43.970;22.868;2022-09-16T05:00:40;100596.94;;;22.89;100.00
63808;BME280;49961;43.970;22.868;2022-09-16T05:01:40;100604.88;;;23.02;100.00
63808;BME280;49961;43.970;22.868;2022-09-16T05:02:43;100641.06;;;23.20;100.00
63808;BME280;49961;43.970;22.868;2022-09-16T05:03:47;100642.59;;;23.21;100.00
63808;BME280;49961;43.970;22.868;2022-09-16T05:04:50;100555.09;;;22.66;100.00
63808;BME280;49961;43.970;22.868;2022-09-16T05:05:50;100626.69;;;23.18;100.00
63808;BME280;49961;43.970;22.868;2022-09-16T05:06:51;100642.31;;;23.24;100.00
63808;BME280;49961;43.970;22.868;2022-09-16T05:07:52;100569.97;;;22.83;100.00
63808;BME280;49961;43.970;22.868;2022-09-16T05:08:54;100639.50;;;23.24;100.00
63808;BME280;49961;43.970;22.868;2022-09-16T05:09:54;100603.06;;;22.99;100.00
63808;BME280;49961;43.970;22.868;2022-09-16T05:11:02;100555.59;;;22.70;100.00
63808;BME280;49961;43.970;22.868;2022-09-16T05:12:02;100638.47;;;23.27;100.00
63808;BME280;49961;43.970;22.868;2022-09-16T05:13:03;100640.25;;;23.30;100.00
63808;BME280;49961;43.970;22.868;2022-09-16T05:14:06;100641.00;;;23.31;100.00
63808;BME280;49961;43.970;22.868;2022-09-16T05:15:07;100639.47;;;23.30;100.00
63808;BME280;49961;43.970;22.868;2022-09-16T05:16:11;100603.28;;;23.06;100.00
63808;BME280;49961;43.970;22.868;2022-09-16T05:17:12;100566.38;;;22.82;100.00
63808;BME280;49961;43.970;22.868;2022-09-16T05:18:12;100625.63;;;23.26;100.00
63808;BME280;49961;43.970;22.868;2022-09-16T05:19:13;100623.06;;;23.23;100.00
63808;BME280;49961;43.970;22.868;2022-09-16T05:20:14;100624.59;;;23.24;100.00
63808;BME280;49961;43.970;22.868;2022-09-16T05:21:17;100627.16;;;23.27;100.00
63808;BME280;49961;43.970;22.868;2022-09-16T05:22:18;100632.28;;;23.29;100.00
63808;BME280;49961;43.970;22.868;2022-09-16T05:23:19;100609.16;;;23.25;100.00
63808;BME280;49961;43.970;22.868;2022-09-16T05:24:19;100622.00;;;23.31;100.00
63808;BME280;49961;43.970;22.868;2022-09-16T05:25:20;100618.91;;;23.35;100.00
63808;BME280;49961;43.970;22.868;2022-09-16T05:26:23;100622.75;;;23.37;100.00
63808;BME280;49961;43.970;22.868;2022-09-16T05:27:24;100630.44;;;23.37;100.00
63808;BME280;49961;43.970;22.868;2022-09-16T05:28:27;100632.00;;;23.38;100.00
63808;BME280;49961;43.970;22.868;2022-09-16T05:29:27;100638.69;;;23.35;100.00
63808;BME280;49961;43.970;22.868;2022-09-16T05:30:28;100633.56;;;23.33;100.00
63808;BME280;49961;43.970;22.868;2022-09-16T05:31:30;100542.28;;;22.65;100.00
63808;BME280;49961;43.970;22.868;2022-09-16T05:32:31;100654.88;;;23.34;100.00
63808;BME280;49961;43.970;22.868;2022-09-16T05:33:32;100655.66;;;23.35;100.00
63808;BME280;49961;43.970;22.868;2022-09-16T05:34:33;100640.78;;;23.29;100.00
63808;BME280;49961;43.970;22.868;2022-09-16T05:35:36;100652.31;;;23.36;100.00
63808;BME280;49961;43.970;22.868;2022-09-16T05:36:36;100645.38;;;23.37;100.00
63808;BME280;49961;43.970;22.868;2022-09-16T05:37:41;100634.84;;;23.38;100.00
63808;BME280;49961;43.970;22.868;2022-09-16T05:38:45;100609.16;;;23.25;100.00
63808;BME280;49961;43.970;22.868;2022-09-16T05:39:45;100636.88;;;23.37;100.00
63808;BME280;49961;43.970;22.868;2022-09-16T05:40:47;100633.28;;;23.42;100.00
63808;BME280;49961;43.970;22.868;2022-09-16T05:41:56;100626.84;;;23.42;100.00
63808;BME280;49961;43.970;22.868;2022-09-16T05:42:56;100522.72;;;22.72;100.00
63808;BME280;49961;43.970;22.868;2022-09-16T05:43:57;100629.13;;;23.49;100.00
63808;BME280;49961;43.970;22.868;2022-09-16T05:45:00;100626.78;;;23.53;100.00
63808;BME280;49961;43.970;22.868;2022-09-16T05:46:00;100626.53;;;23.56;100.00
63808;BME280;49961;43.970;22.868;2022-09-16T05:47:01;100630.88;;;23.57;100.00
63808;BME280;49961;43.970;22.868;2022-09-16T05:48:07;100626.75;;;23.58;100.00
63808;BME280;49961;43.970;22.868;2022-09-16T05:49:09;100632.13;;;23.62;100.00
63808;BME280;49961;43.970;22.868;2022-09-16T05:50:09;100619.63;;;23.41;100.00
63808;BME280;49961;43.970;22.868;2022-09-16T05:51:13;100633.88;;;23.70;100.00
63808;BME280;49961;43.970;22.868;2022-09-16T05:52:13;100635.44;;;23.71;100.00
63808;BME280;49961;43.970;22.868;2022-09-16T05:53:14;100642.13;;;23.74;100.00
63808;BME280;49961;43.970;22.868;2022-09-16T05:54:15;100653.44;;;23.74;100.00
63808;BME280;49961;43.970;22.868;2022-09-16T05:55:19;100645.44;;;23.78;100.00
63808;BME280;49961;43.970;22.868;2022-09-16T05:56:27;100647.75;;;23.79;100.00
63808;BME280;49961;43.970;22.868;2022-09-16T05:57:29;100579.81;;;23.33;100.00
63808;BME280;49961;43.970;22.868;2022-09-16T05:58:31;100585.41;;;23.44;100.00
63808;BME280;49961;43.970;22.868;2022-09-16T05:59:31;100649.00;;;23.89;100.00
63808;BME280;49961;43.970;22.868;2022-09-16T06:00:32;100643.34;;;23.89;100.00
63808;BME280;49961;43.970;22.868;2022-09-16T06:01:33;100657.47;;;23.95;100.00
63808;BME280;49961;43.970;22.868;2022-09-16T06:02:34;100650.00;;;23.97;100.00
63808;BME280;49961;43.970;22.868;2022-09-16T06:03:37;100651.25;;;23.96;100.00
63808;BME280;49961;43.970;22.868;2022-09-16T06:04:38;100647.19;;;23.92;100.00
63808;BME280;49961;43.970;22.868;2022-09-16T06:05:38;100655.09;;;23.99;100.00
63808;BME280;49961;43.970;22.868;2022-09-16T06:06:44;100643.56;;;23.97;100.00